createdAt,value
2018-07-22T00:02:24.600Z,75.63
2018-07-22T00:04:52.294Z,75.68
2018-07-22T00:07:19.902Z,75.68
2018-07-22T00:09:47.533Z,76.56
2018-07-22T00:12:15.164Z,76.25
2018-07-22T00:14:42.810Z,75.54
2018-07-22T00:17:10.688Z,75.30
2018-07-22T00:19:38.428Z,74.85
2018-07-22T00:22:06.081Z,74.44
2018-07-22T00:24:33.781Z,75.49
2018-07-22T00:27:01.414Z,75.03
2018-07-22T00:29:29.147Z,74.84
2018-07-22T00:31:56.775Z,75.09
2018-07-22T00:34:24.554Z,75.22
2018-07-22T00:36:52.198Z,76.33
2018-07-22T00:39:19.780Z,76.20
2018-07-22T00:41:47.450Z,75.83
2018-07-22T00:44:15.149Z,76.00
2018-07-22T00:46:42.745Z,76.07
2018-07-22T00:49:10.446Z,75.92
2018-07-22T00:51:38.137Z,75.91
2018-07-22T00:54:05.801Z,75.80
2018-07-22T00:56:33.403Z,75.39
2018-07-22T00:59:01.143Z,75.56
2018-07-22T01:01:28.829Z,75.94
2018-07-22T01:03:56.459Z,76.24
2018-07-22T01:06:24.170Z,75.72
2018-07-22T01:08:51.777Z,75.78
2018-07-22T01:11:19.433Z,76.02
2018-07-22T01:13:47.049Z,75.48
2018-07-22T01:16:14.754Z,76.30
2018-07-22T01:18:42.336Z,75.98
2018-07-22T01:21:10.053Z,75.97
2018-07-22T01:23:37.713Z,76.09
2018-07-22T01:26:05.422Z,77.06
2018-07-22T01:28:33.125Z,77.06
2018-07-22T01:31:00.765Z,77.31
2018-07-22T01:33:28.446Z,77.70
2018-07-22T01:35:56.172Z,77.14
2018-07-22T01:38:23.786Z,77.48
2018-07-22T01:40:51.541Z,77.18
2018-07-22T01:43:19.168Z,76.22
2018-07-22T01:45:46.780Z,76.40
2018-07-22T01:48:14.449Z,76.11
2018-07-22T01:50:42.074Z,74.93
2018-07-22T01:53:09.867Z,74.68
2018-07-22T01:55:37.524Z,74.84
2018-07-22T01:58:05.262Z,74.17
2018-07-22T02:00:32.872Z,74.68
2018-07-22T02:03:00.562Z,74.56
2018-07-22T02:05:29.035Z,74.69
2018-07-22T02:07:57.006Z,74.11
2018-07-22T02:10:36.726Z,73.97
2018-07-22T02:13:04.582Z,73.13
2018-07-22T02:15:32.290Z,73.59
2018-07-22T02:17:59.929Z,73.22
2018-07-22T02:20:27.689Z,73.15
2018-07-22T02:22:55.321Z,72.58
2018-07-22T02:25:23.034Z,73.79
2018-07-22T02:27:50.670Z,73.79
2018-07-22T02:30:18.375Z,73.40
2018-07-22T02:32:46.115Z,73.82
2018-07-22T02:35:13.753Z,73.28
2018-07-22T02:37:41.455Z,72.93
2018-07-22T02:40:09.146Z,72.93
2018-07-22T02:42:36.994Z,74.20
2018-07-22T02:45:04.837Z,75.06
2018-07-22T02:47:32.469Z,74.14
2018-07-22T02:50:00.171Z,75.02
2018-07-22T02:52:27.822Z,75.81
2018-07-22T02:54:55.467Z,75.08
2018-07-22T02:57:23.100Z,76.12
2018-07-22T02:59:50.825Z,76.11
2018-07-22T03:02:18.493Z,76.52
2018-07-22T03:04:46.257Z,75.20
2018-07-22T03:07:13.923Z,74.83
2018-07-22T03:09:41.657Z,75.67
2018-07-22T03:12:09.377Z,76.77
2018-07-22T03:14:37.001Z,76.73
2018-07-22T03:17:04.780Z,76.74
2018-07-22T03:19:32.410Z,77.53
2018-07-22T03:22:00.122Z,76.70
2018-07-22T03:24:27.864Z,76.27
2018-07-22T03:26:55.506Z,76.12
2018-07-22T03:29:23.157Z,75.45
2018-07-22T03:31:50.901Z,74.92
2018-07-22T03:34:18.585Z,76.11
2018-07-22T03:36:46.247Z,75.93
2018-07-22T03:39:13.868Z,75.26
2018-07-22T03:41:41.598Z,75.72
2018-07-22T03:44:09.266Z,75.54
2018-07-22T03:46:36.868Z,76.25
2018-07-22T03:49:04.552Z,75.22
2018-07-22T03:51:32.246Z,75.10
2018-07-22T03:53:59.958Z,74.95
2018-07-22T03:56:27.713Z,73.91
2018-07-22T03:58:55.322Z,74.56
2018-07-22T04:01:23.026Z,75.24
2018-07-22T04:03:50.725Z,74.52
2018-07-22T04:06:18.474Z,74.54
2018-07-22T04:08:46.177Z,74.53
2018-07-22T04:11:13.845Z,74.00
2018-07-22T04:13:41.574Z,73.70
2018-07-22T04:16:09.320Z,73.42
2018-07-22T04:18:43.633Z,74.17
2018-07-22T04:21:11.373Z,74.86
2018-07-22T04:23:39.137Z,74.82
2018-07-22T04:26:06.779Z,74.64
2018-07-22T04:28:34.443Z,74.40
2018-07-22T04:31:02.130Z,73.78
2018-07-22T04:33:29.805Z,73.42
2018-07-22T04:35:57.417Z,73.16
2018-07-22T04:38:25.107Z,73.42
2018-07-22T04:40:52.843Z,72.76
2018-07-22T04:43:20.456Z,72.42
2018-07-22T04:45:48.073Z,72.57
2018-07-22T04:48:15.758Z,72.51
2018-07-22T04:50:43.448Z,71.68
2018-07-22T04:53:11.212Z,71.81
2018-07-22T04:55:38.953Z,71.58
2018-07-22T04:58:06.693Z,71.73
2018-07-22T05:00:34.426Z,71.44
2018-07-22T05:03:02.069Z,71.43
2018-07-22T05:05:29.788Z,71.91
2018-07-22T05:07:57.458Z,71.05
2018-07-22T05:10:37.205Z,71.10
2018-07-22T05:13:05.029Z,70.84
2018-07-22T05:15:32.778Z,70.67
2018-07-22T05:18:00.554Z,70.78
2018-07-22T05:20:28.265Z,70.99
2018-07-22T05:22:56.020Z,71.16
2018-07-22T05:25:23.941Z,71.42
2018-07-22T05:27:51.584Z,71.63
2018-07-22T05:30:19.277Z,71.22
2018-07-22T05:32:46.903Z,70.71
2018-07-22T05:35:14.548Z,71.09
2018-07-22T05:37:42.185Z,71.42
2018-07-22T05:40:09.870Z,70.88
2018-07-22T05:42:37.549Z,71.70
2018-07-22T05:45:05.395Z,71.44
2018-07-22T05:47:33.126Z,71.94
2018-07-22T05:50:01.497Z,71.17
2018-07-22T05:52:29.479Z,71.93
2018-07-22T05:54:57.160Z,71.76
2018-07-22T05:57:25.042Z,71.61
2018-07-22T05:59:52.731Z,71.84
2018-07-22T06:02:20.490Z,71.55
2018-07-22T06:04:48.336Z,71.57
2018-07-22T06:07:15.998Z,71.66
2018-07-22T06:09:43.678Z,71.56
2018-07-22T06:12:11.377Z,71.01
2018-07-22T06:14:39.137Z,71.42
2018-07-22T06:17:07.001Z,71.74
2018-07-22T06:19:34.679Z,70.38
2018-07-22T06:22:02.397Z,70.48
2018-07-22T06:24:30.071Z,69.75
2018-07-22T06:26:57.754Z,68.94
2018-07-22T06:29:25.452Z,68.97
2018-07-22T06:31:53.172Z,68.76
2018-07-22T06:34:20.837Z,68.67
2018-07-22T06:36:48.630Z,68.04
2018-07-22T06:39:16.319Z,67.63
2018-07-22T06:41:44.390Z,68.08
2018-07-22T06:44:12.106Z,67.44
2018-07-22T06:46:39.802Z,67.58
2018-07-22T06:49:07.524Z,67.89
2018-07-22T06:51:35.222Z,67.15
2018-07-22T06:54:03.190Z,66.61
2018-07-22T06:56:30.937Z,66.01
2018-07-22T06:58:58.626Z,65.38
2018-07-22T07:01:26.389Z,65.19
2018-07-22T07:03:54.183Z,64.31
2018-07-22T07:06:21.947Z,64.12
2018-07-22T07:11:16.853Z,62.83
2018-07-22T07:13:44.570Z,62.90
2018-07-22T07:16:12.346Z,62.92
2018-07-22T07:18:40.018Z,63.05
2018-07-22T07:21:07.697Z,61.94
2018-07-22T07:23:35.464Z,61.74
2018-07-22T07:26:03.143Z,62.14
2018-07-22T07:28:30.887Z,60.65
2018-07-22T07:30:58.654Z,60.64
2018-07-22T07:33:26.483Z,61.54
2018-07-22T07:35:54.178Z,60.49
2018-07-22T07:38:21.917Z,60.10
2018-07-22T07:40:49.718Z,60.07
2018-07-22T07:43:18.318Z,59.79
2018-07-22T07:45:46.034Z,58.13
2018-07-22T07:48:13.869Z,58.01
2018-07-22T07:50:41.631Z,57.37
2018-07-22T07:53:09.360Z,56.59
2018-07-22T07:55:37.136Z,54.34
2018-07-22T07:58:04.925Z,55.34
2018-07-22T08:00:32.626Z,55.38
2018-07-22T08:03:00.250Z,54.86
2018-07-22T08:05:28.076Z,54.38
2018-07-22T08:07:55.680Z,54.37
2018-07-22T08:10:37.177Z,53.04
2018-07-22T08:13:05.613Z,53.75
2018-07-22T08:15:33.290Z,53.76
2018-07-22T08:18:01.030Z,53.26
2018-07-22T08:20:28.906Z,50.82
2018-07-22T08:22:56.674Z,51.59
2018-07-22T08:25:24.497Z,51.86
2018-07-22T08:27:52.222Z,50.95
2018-07-22T08:30:19.944Z,49.84
2018-07-22T08:32:47.761Z,49.95
2018-07-22T08:35:15.431Z,49.76
2018-07-22T08:37:43.186Z,48.98
2018-07-22T08:40:10.937Z,48.96
2018-07-22T08:42:38.605Z,49.54
2018-07-22T08:45:06.765Z,49.51
2018-07-22T08:47:34.480Z,49.09
2018-07-22T08:50:02.228Z,49.52
2018-07-22T08:52:29.996Z,48.72
2018-07-22T08:54:57.653Z,47.88
2018-07-22T08:57:25.469Z,49.12
2018-07-22T08:59:53.239Z,48.85
2018-07-22T09:02:21.034Z,48.53
2018-07-22T09:04:48.865Z,47.96
2018-07-22T09:07:16.553Z,46.98
2018-07-22T09:09:44.242Z,47.14
2018-07-22T09:12:12.046Z,47.49
2018-07-22T09:14:39.916Z,47.47
2018-07-22T09:17:07.701Z,47.27
2018-07-22T09:19:35.356Z,46.80
2018-07-22T09:22:03.038Z,45.79
2018-07-22T09:24:31.252Z,46.86
2018-07-22T09:26:59.024Z,46.76
2018-07-22T09:29:27.034Z,45.72
2018-07-22T09:31:54.765Z,45.10
2018-07-22T09:34:22.417Z,43.92
2018-07-22T09:36:50.085Z,44.17
2018-07-22T09:39:17.712Z,43.93
2018-07-22T09:41:45.429Z,43.97
2018-07-22T09:44:13.054Z,43.19
2018-07-22T09:46:40.701Z,43.58
2018-07-22T09:49:08.433Z,43.78
2018-07-22T09:51:36.109Z,42.74
2018-07-22T09:54:03.922Z,41.98
2018-07-22T09:56:31.561Z,43.29
2018-07-22T09:58:59.501Z,41.98
2018-07-22T10:01:27.109Z,42.69
2018-07-22T10:03:54.734Z,43.37
2018-07-22T10:06:22.522Z,42.70
2018-07-22T10:22:57.851Z,42.48
2018-07-22T10:25:25.539Z,42.86
2018-07-22T10:27:53.470Z,42.63
2018-07-22T10:30:21.236Z,43.98
2018-07-22T10:32:49.336Z,43.31
2018-07-22T10:35:17.064Z,43.87
2018-07-22T10:37:44.910Z,45.97
2018-07-22T10:40:13.400Z,44.65
2018-07-22T10:42:41.288Z,44.88
2018-07-22T10:45:09.091Z,44.42
2018-07-22T10:47:37.246Z,44.80
2018-07-22T10:50:05.274Z,43.71
2018-07-22T10:52:33.279Z,44.98
2018-07-22T10:55:01.002Z,44.64
2018-07-22T10:57:28.843Z,45.38
2018-07-22T10:59:56.675Z,45.55
2018-07-22T11:02:24.640Z,44.94
2018-07-22T11:04:52.914Z,45.08
2018-07-22T11:07:21.354Z,43.89
2018-07-22T11:09:49.695Z,44.51
2018-07-22T11:12:17.507Z,44.70
2018-07-22T11:14:45.300Z,44.34
2018-07-22T11:17:13.358Z,43.59
2018-07-22T11:19:41.186Z,43.35
2018-07-22T11:22:09.287Z,44.20
2018-07-22T11:24:37.118Z,44.82
2018-07-22T11:27:05.291Z,45.51
2018-07-22T11:29:33.287Z,43.17
2018-07-22T11:32:01.170Z,43.75
2018-07-22T11:34:28.961Z,44.83
2018-07-22T11:36:57.740Z,44.12
2018-07-22T11:39:25.726Z,43.87
2018-07-22T11:41:53.454Z,44.50
2018-07-22T11:44:21.440Z,44.17
2018-07-22T11:46:49.143Z,44.16
2018-07-22T11:49:16.835Z,43.17
2018-07-22T11:51:44.591Z,42.08
2018-07-22T11:54:12.302Z,41.20
2018-07-22T11:56:40.047Z,40.84
2018-07-22T11:59:07.778Z,43.03
2018-07-22T12:01:35.587Z,40.61
2018-07-22T12:04:03.327Z,40.46
2018-07-22T12:06:31.055Z,40.43
2018-07-22T12:08:58.771Z,41.93
2018-07-22T12:11:26.731Z,39.67
2018-07-22T12:13:54.465Z,40.52
2018-07-22T12:16:22.202Z,39.33
2018-07-22T12:18:50.851Z,38.43
2018-07-22T12:21:18.567Z,37.38
2018-07-22T12:23:46.289Z,37.98
2018-07-22T12:26:13.986Z,37.23
2018-07-22T12:28:41.715Z,37.09
2018-07-22T12:31:09.483Z,38.33
2018-07-22T12:33:37.211Z,39.95
2018-07-22T12:36:05.671Z,40.39
2018-07-22T12:38:33.384Z,40.34
2018-07-22T12:41:01.119Z,39.97
2018-07-22T12:43:28.846Z,40.14
2018-07-22T12:45:56.567Z,40.78
2018-07-22T12:48:24.298Z,39.01
2018-07-22T12:50:52.015Z,40.32
2018-07-22T12:53:19.751Z,39.76
2018-07-22T12:55:47.532Z,39.85
2018-07-22T12:58:15.311Z,40.46
2018-07-22T13:00:43.051Z,40.41
2018-07-22T13:03:11.026Z,40.82
2018-07-22T13:05:38.767Z,40.47
2018-07-22T13:08:06.839Z,39.08
2018-07-22T13:10:37.629Z,39.29
2018-07-22T13:13:05.458Z,40.22
2018-07-22T13:15:33.169Z,39.51
2018-07-22T13:18:00.996Z,39.77
2018-07-22T13:20:28.698Z,39.20
2018-07-22T13:22:56.722Z,38.42
2018-07-22T13:25:24.491Z,37.08
2018-07-22T13:27:52.243Z,36.60
2018-07-22T13:30:19.930Z,37.20
2018-07-22T13:32:47.635Z,37.34
2018-07-22T13:35:15.455Z,37.60
2018-07-22T13:37:43.175Z,38.54
2018-07-22T13:40:10.961Z,37.75
2018-07-22T13:42:38.724Z,38.12
2018-07-22T13:45:06.542Z,37.24
2018-07-22T13:47:34.249Z,35.49
2018-07-22T13:50:02.079Z,35.99
2018-07-22T13:52:29.895Z,35.96
2018-07-22T13:54:57.660Z,35.82
2018-07-22T13:57:25.408Z,35.90
2018-07-22T13:59:53.197Z,35.68
2018-07-22T14:02:20.948Z,35.89
2018-07-22T14:04:48.668Z,36.97
2018-07-22T14:07:16.404Z,36.60
2018-07-22T14:09:44.147Z,37.50
2018-07-22T14:12:11.888Z,37.44
2018-07-22T14:14:39.591Z,37.23
2018-07-22T14:17:07.308Z,38.29
2018-07-22T14:19:35.115Z,38.06
2018-07-22T14:22:02.863Z,38.15
2018-07-22T14:24:30.617Z,35.62
2018-07-22T14:26:58.347Z,35.52
2018-07-22T14:29:26.189Z,37.78
2018-07-22T14:32:40.700Z,41.08
2018-07-22T14:35:16.219Z,43.65
2018-07-22T14:37:43.954Z,42.83
2018-07-22T14:40:11.684Z,43.44
2018-07-22T14:42:39.402Z,43.98
2018-07-22T14:45:07.682Z,48.82
2018-07-22T14:47:35.535Z,48.83
2018-07-22T14:50:03.410Z,48.55
2018-07-22T14:52:31.179Z,49.02
2018-07-22T14:54:58.934Z,49.21
2018-07-22T14:57:26.710Z,49.26
2018-07-22T14:59:54.451Z,51.13
2018-07-22T15:02:22.187Z,50.87
2018-07-22T15:04:49.918Z,51.59
2018-07-22T15:07:17.890Z,50.68
2018-07-22T15:09:45.643Z,50.22
2018-07-22T15:12:13.479Z,51.20
2018-07-22T15:14:41.261Z,52.11
2018-07-22T15:17:09.045Z,51.86
2018-07-22T15:19:36.786Z,53.53
2018-07-22T15:22:04.591Z,53.22
2018-07-22T15:24:32.409Z,53.49
2018-07-22T15:27:00.135Z,52.79
2018-07-22T15:29:27.848Z,53.63
2018-07-22T15:31:55.587Z,55.21
2018-07-22T15:34:23.300Z,56.33
2018-07-22T15:36:50.987Z,57.54
2018-07-22T15:39:18.688Z,59.26
2018-07-22T15:41:46.374Z,58.34
2018-07-22T15:44:14.113Z,57.84
2018-07-22T15:46:42.115Z,59.18
2018-07-22T15:49:09.877Z,59.94
2018-07-22T15:51:37.609Z,59.49
2018-07-22T15:54:05.316Z,60.40
2018-07-22T15:56:33.026Z,61.78
2018-07-22T15:59:00.818Z,64.17
2018-07-22T16:01:28.630Z,63.90
2018-07-22T16:03:57.453Z,65.74
2018-07-22T16:06:25.120Z,66.24
2018-07-22T16:08:52.846Z,65.51
2018-07-22T16:11:20.646Z,66.88
2018-07-22T16:13:48.317Z,66.35
2018-07-22T16:16:16.221Z,65.96
2018-07-22T16:18:43.858Z,65.43
2018-07-22T16:21:11.508Z,65.21
2018-07-22T16:23:39.482Z,66.89
2018-07-22T16:26:07.148Z,63.35
2018-07-22T16:28:34.938Z,63.14
2018-07-22T16:31:02.670Z,62.10
2018-07-22T16:33:30.507Z,63.27
2018-07-22T16:35:58.183Z,64.02
2018-07-22T16:38:25.814Z,65.36
2018-07-22T16:40:53.557Z,62.85
2018-07-22T16:43:21.417Z,61.30
2018-07-22T16:45:49.366Z,64.19
2018-07-22T16:48:17.134Z,66.75
2018-07-22T16:50:44.892Z,66.86
2018-07-22T16:53:12.613Z,66.26
2018-07-22T16:55:40.249Z,63.93
2018-07-22T16:58:07.973Z,65.45
2018-07-22T17:00:35.621Z,64.72
2018-07-22T17:03:03.281Z,66.37
2018-07-22T17:05:31.070Z,66.31
2018-07-22T17:07:58.746Z,65.40
2018-07-22T17:10:36.595Z,65.76
2018-07-22T17:13:04.393Z,64.81
2018-07-22T17:15:32.036Z,65.69
2018-07-22T17:17:59.705Z,64.41
2018-07-22T17:20:27.459Z,62.93
2018-07-22T17:22:55.229Z,64.92
2018-07-22T17:25:22.933Z,63.91
2018-07-22T17:27:50.655Z,65.60
2018-07-22T17:30:18.361Z,66.37
2018-07-22T17:32:46.108Z,64.43
2018-07-22T17:35:13.805Z,65.46
2018-07-22T17:37:41.565Z,64.63
2018-07-22T17:40:09.418Z,66.53
2018-07-22T17:42:37.205Z,65.86
2018-07-22T17:45:05.040Z,66.74
2018-07-22T17:47:32.733Z,66.47
2018-07-22T17:50:00.538Z,65.69
2018-07-22T17:52:28.294Z,65.26
2018-07-22T17:54:56.146Z,65.65
2018-07-22T17:57:23.892Z,66.18
2018-07-22T17:59:51.518Z,65.95
2018-07-22T18:02:19.220Z,67.09
2018-07-22T18:04:47.099Z,66.64
2018-07-22T18:07:14.813Z,67.33
2018-07-22T18:09:42.484Z,66.66
2018-07-22T18:12:10.238Z,65.18
2018-07-22T18:14:38.073Z,62.88
2018-07-22T18:17:05.809Z,63.75
2018-07-22T18:19:33.466Z,63.69
2018-07-22T18:22:01.226Z,61.89
2018-07-22T18:24:28.992Z,62.29
2018-07-22T18:26:56.876Z,63.21
2018-07-22T18:29:24.734Z,63.03
2018-07-22T18:31:52.406Z,63.86
2018-07-22T18:36:53.709Z,60.73
2018-07-22T18:39:21.433Z,62.99
2018-07-22T18:41:49.238Z,62.15
2018-07-22T18:44:16.910Z,61.21
2018-07-22T18:46:44.596Z,61.15
2018-07-22T18:49:12.630Z,62.77
2018-07-22T18:51:40.461Z,61.87
2018-07-22T18:54:08.199Z,63.66
2018-07-22T18:56:35.849Z,63.93
2018-07-22T18:59:03.647Z,61.50
2018-07-22T19:01:31.295Z,61.75
2018-07-22T19:04:00.199Z,62.18
2018-07-22T19:06:27.866Z,63.29
2018-07-22T19:08:55.868Z,64.11
2018-07-22T19:11:23.538Z,65.27
2018-07-22T19:13:51.238Z,65.17
2018-07-22T19:16:18.937Z,65.94
2018-07-22T19:18:46.645Z,64.98
2018-07-22T19:21:14.781Z,65.03
2018-07-22T19:23:42.409Z,65.23
2018-07-22T19:26:10.178Z,63.13
2018-07-22T19:28:38.020Z,63.43
2018-07-22T19:31:05.705Z,62.51
2018-07-22T19:33:33.475Z,63.51
2018-07-22T19:36:01.225Z,64.02
2018-07-22T19:38:28.951Z,62.98
2018-07-22T19:40:56.646Z,62.56
2018-07-22T19:43:24.560Z,62.84
2018-07-22T19:45:52.276Z,63.57
2018-07-22T19:48:19.925Z,63.16
2018-07-22T19:50:48.182Z,63.61
2018-07-22T19:53:15.857Z,62.77
2018-07-22T19:55:43.554Z,63.06
2018-07-22T19:58:11.168Z,62.23
2018-07-22T20:00:38.951Z,62.08
2018-07-22T20:03:06.974Z,62.42
2018-07-22T20:05:34.766Z,61.95
2018-07-22T20:08:02.469Z,61.88
2018-07-22T20:10:36.825Z,62.91
2018-07-22T20:13:04.514Z,63.30
2018-07-22T20:15:32.173Z,62.82
2018-07-22T20:18:00.049Z,63.00
2018-07-22T20:20:27.789Z,62.59
2018-07-22T20:22:55.602Z,63.47
2018-07-22T20:25:23.446Z,62.64
2018-07-22T20:27:51.229Z,62.38
2018-07-22T20:30:19.028Z,64.36
2018-07-22T20:32:46.942Z,63.88
2018-07-22T20:35:14.585Z,63.73
2018-07-22T20:37:42.286Z,64.30
2018-07-22T20:40:10.128Z,64.87
2018-07-22T20:42:37.922Z,64.30
2018-07-22T20:45:05.627Z,64.95
2018-07-22T20:47:33.336Z,65.21
2018-07-22T20:50:01.061Z,65.68
2018-07-22T20:52:29.489Z,65.43
2018-07-22T20:54:57.182Z,66.01
2018-07-22T20:57:24.982Z,65.25
2018-07-22T20:59:52.597Z,66.03
2018-07-22T21:02:20.310Z,66.59
2018-07-22T21:04:48.038Z,66.71
2018-07-22T21:07:15.665Z,67.71
2018-07-22T21:09:43.330Z,67.25
2018-07-22T21:12:54.454Z,67.65
2018-07-22T21:15:22.132Z,68.06
2018-07-22T21:17:50.692Z,68.39
2018-07-22T21:20:19.493Z,68.20
2018-07-22T21:22:47.317Z,68.94
2018-07-22T21:25:15.529Z,68.18
2018-07-22T21:27:44.354Z,68.65
2018-07-22T21:30:12.616Z,69.16
2018-07-22T21:32:47.177Z,69.05
2018-07-22T21:35:14.920Z,68.24
2018-07-22T21:37:42.669Z,68.21
2018-07-22T21:40:10.409Z,67.43
2018-07-22T21:42:38.045Z,67.73
2018-07-22T21:45:06.547Z,67.44
2018-07-22T21:47:34.525Z,67.10
2018-07-22T21:50:02.334Z,67.05
2018-07-22T21:52:29.981Z,67.30
2018-07-22T21:54:57.681Z,66.97
2018-07-22T21:57:25.315Z,66.44
2018-07-22T21:59:52.947Z,67.00
2018-07-22T22:02:20.657Z,66.98
2018-07-22T22:04:48.325Z,66.96
2018-07-22T22:07:15.999Z,66.72
2018-07-22T22:09:43.661Z,66.77
2018-07-22T22:12:11.333Z,66.62
2018-07-22T22:14:39.025Z,66.05
2018-07-22T22:17:06.805Z,66.87
2018-07-22T22:19:34.402Z,66.55
2018-07-22T22:22:02.130Z,67.27
2018-07-22T22:24:29.845Z,66.69
2018-07-22T22:26:57.537Z,67.12
2018-07-22T22:29:25.283Z,67.08
2018-07-22T22:31:52.925Z,67.09
2018-07-22T22:34:20.626Z,67.71
2018-07-22T22:36:48.402Z,66.51
2018-07-22T22:39:16.043Z,66.93
2018-07-22T22:41:43.681Z,68.38
2018-07-22T22:44:11.420Z,68.47
2018-07-22T22:46:39.757Z,67.76
2018-07-22T22:49:07.713Z,68.12
2018-07-22T22:51:35.345Z,68.19
2018-07-22T22:54:03.073Z,68.97
2018-07-22T22:56:30.813Z,69.28
2018-07-22T22:59:14.198Z,68.01
2018-07-22T23:01:41.917Z,69.72
2018-07-22T23:04:09.565Z,69.10
2018-07-22T23:06:37.360Z,69.30
2018-07-22T23:09:08.182Z,68.84
2018-07-22T23:11:36.133Z,68.04
2018-07-22T23:14:04.090Z,68.56
2018-07-22T23:16:31.925Z,67.96
2018-07-22T23:18:59.641Z,68.51
2018-07-22T23:21:27.252Z,68.35
2018-07-22T23:23:54.953Z,68.35
2018-07-22T23:26:22.650Z,68.08
2018-07-22T23:28:50.368Z,67.57
2018-07-22T23:31:18.025Z,67.66
2018-07-22T23:33:45.656Z,68.15
2018-07-22T23:36:13.386Z,68.06
2018-07-22T23:38:41.013Z,67.37
2018-07-22T23:41:08.662Z,67.83
2018-07-22T23:43:36.339Z,67.02
2018-07-22T23:46:04.228Z,68.18
2018-07-22T23:48:31.905Z,67.63
2018-07-22T23:50:59.558Z,67.92
2018-07-22T23:53:27.285Z,68.60
2018-07-22T23:55:54.955Z,68.40
2018-07-22T23:58:22.601Z,68.36
